首页
METAR-TAF:

METAR-TAF

机场 :

茨城机场

百里飛行場, 日本

纬度: 36-11N, 经度: 140-25E, 海拔: 32米

当前天气观测

该预报发布于33分钟前的10:00 UTC
风速3节,风向东转东南
温度 31°C
湿度 59%
气压 1006 hPa
能见度10公里或以上
少量云层高于3000英尺
多云层高于23000英尺

METAR: RJAH 221000Z 11003KT 9999 FEW030 BKN230 31/22 Q1006

时间: 19:33 (10:33 UTC)

预报

该预报发布于5小时和19分钟前的05:14 UTC
预报有效从22日的 06点(UTC)到 23日的 12点(UTC)
风速6节,风向
能见度10公里或以上
少量云层高于3000英尺
成为
从 22日的 11点(UTC)到 22日的 13点(UTC)
风速4节,风向
成为
从 23日的 00点(UTC)到 23日的 03点(UTC)
风速10节,风向
成为
从 23日的 09点(UTC)到 23日的 12点(UTC)
风速8节,风向东转东北

TAF: RJAH 220514Z 2206/2312 18006KT 9999 FEW030 BECMG 2211/2213 01004KT BECMG 2300/2303 17010KT BECMG 2309/2312 06008KT

超过4000个机场的气象观测和天气预报(METAR&TAF报告)。

可查询的气象台以黄色和红色小点在地图上表示。

将鼠标移到小点上方,可查看气象台名称。

然后点击查看天气观测和预报。

如需切换地图:点击带黑十字的绿色按钮放大地图;点击带横线的绿色按钮缩小地图;或者点击绿色箭头查看邻近地区的地图。


METAR-TAF: